Time;durP1;ratioP1;P1;durP2;ratioP2;P2;SDS_P1;SDS_P2;PMS_P1;PMS_P2;Temp;Humidity;BMP_temperature;BMP_pressure;BME280_temperature;BME280_humidity;BME280_pressure;Samples;Min_cycle;Max_cycle;Signal;HPM_P1;HPM_P2
2021/12/25 00:01:08;;;;;;;;;;;;;;;;;;4221374;28;1713;-58
2021/12/25 00:03:29;;;;;;;;;;;;;;;;;;4206359;28;973;-57
2021/12/25 00:05:52;;;;;;;;;;;;;;;;;;4221488;28;1098;-57
2021/12/25 00:08:12;;;;;;;;;;;;;;;;;;4221242;28;1285;-57
2021/12/25 00:10:32;;;;;;;;;;;;;;;;;;4221517;28;1057;-57
2021/12/25 00:12:54;;;;;;;;;;;;;;;;;;4221647;28;1061;-57
2021/12/25 00:15:14;;;;;;;;;;;;;;;;;;4221407;28;1324;-57
2021/12/25 00:17:34;;;;;;;;;;;;;;;;;;4221075;28;1166;-57
2021/12/25 00:19:55;;;;;;;;;;;;;;;;;;4221511;28;1909;-58
2021/12/25 00:22:15;;;;;;;;;;;;;;;;;;4221228;28;1201;-57
2021/12/25 00:24:36;;;;;;;;;;;;;;;;;;4221374;28;1080;-57
2021/12/25 00:27:02;;;;;;;;;;;;;;;;;;4221526;28;1012;-57
2021/12/25 00:29:51;;;;;;;;;;;;;;;;;;4206244;28;1003;-57
2021/12/25 00:32:35;;;;;;;;;;;;;;;;;;4221524;28;984;-57
2021/12/25 00:34:56;;;;;;;;;;;;;;;;;;4222028;28;1239;-57
2021/12/25 00:37:16;;;;;;;;;;;;;;;;;;4221420;28;1062;-57
2021/12/25 00:39:36;;;;;;;;;;;;;;;;;;4221244;28;1981;-57
2021/12/25 00:41:56;;;;;;;;;;;;;;;;;;4221636;28;1248;-57
2021/12/25 00:44:17;;;;;;;;;;;;;;;;;;4221338;28;1453;-57
2021/12/25 00:46:37;;;;;;;;;;;;;;;;;;4221208;28;1365;-57
2021/12/25 00:48:58;;;;;;;;;;;;;;;;;;4220920;28;1028;-57
2021/12/25 00:51:21;;;;;;;;;;;;;;;;;;4206075;28;1136;-58
2021/12/25 00:53:41;;;;;;;;;;;;;;;;;;4204302;28;1012;-57
2021/12/25 00:56:02;;;;;;;;;;;;;;;;;;4221619;28;1179;-57
2021/12/25 00:58:23;;;;;;;;;;;;;;;;;;4206246;28;1044;-58
2021/12/25 01:00:44;;;;;;;;;;;;;;;;;;4204737;28;1909;-57
2021/12/25 01:03:04;;;;;;;;;;;;;;;;;;4205858;28;1297;-57
2021/12/25 01:05:25;;;;;;;;;;;;;;;;;;4205884;28;989;-57
2021/12/25 01:07:46;;;;;;;;;;;;;;;;;;4205376;28;1151;-57
2021/12/25 01:10:13;;;;;;;;;;;;;;;;;;4206077;28;1021;-57
2021/12/25 01:12:47;;;;;;;;;;;;;;;;;;4206148;28;1022;-57
2021/12/25 01:15:08;;;;;;;;;;;;;;;;;;4220795;28;1228;-58
2021/12/25 01:18:05;;;;;;;;;;;;;;;;;;4205773;28;1055;-57
2021/12/25 01:20:40;;;;;;;;;;;;;;;;;;4206082;28;1906;-57
2021/12/25 01:26:20;;;;;;;;;;;;;;;;;;4205919;28;991;-57
2021/12/25 01:31:25;;;;;;;;;;;;;;;;;;4205575;28;1128;-57
2021/12/25 01:34:11;;;;;;;;;;;;;;;;;;4205276;28;984;-57
2021/12/25 01:39:51;;;;;;;;;;;;;;;;;;4220516;28;1914;-57
2021/12/25 01:48:37;;;;;;;;;;;;;;;;;;4205387;28;1434;-57
2021/12/25 01:50:58;;;;;;;;;;;;;;;;;;4220647;28;960;-57
2021/12/25 01:53:18;;;;;;;;;;;;;;;;;;4189006;28;1095;-57
2021/12/25 01:55:39;;;;;;;;;;;;;;;;;;4206940;28;1686;-57
2021/12/25 01:58:00;;;;;;;;;;;;;;;;;;4204386;28;1003;-57
2021/12/25 02:03:46;;;;;;;;;;;;;;;;;;4216207;28;1919;-57
2021/12/25 02:06:08;;;;;;;;;;;;;;;;;;4202314;28;1717;-58
2021/12/25 02:08:28;;;;;;;;;;;;;;;;;;4197919;28;2060;-57
2021/12/25 02:10:49;;;;;;;;;;;;;;;;;;4216191;28;1001;-57
2021/12/25 02:13:11;;;;;;;;;;;;;;;;;;4202870;28;950;-57
2021/12/25 02:15:32;;;;;;;;;;;;;;;;;;4202925;28;1109;-57
2021/12/25 02:18:09;;;;;;;;;;;;;;;;;;4216267;28;985;-57
2021/12/25 02:21:11;;;;;;;;;;;;;;;;;;4180409;28;1910;-57
2021/12/25 02:23:32;;;;;;;;;;;;;;;;;;4185309;28;1123;-57
2021/12/25 02:25:54;;;;;;;;;;;;;;;;;;4187531;28;1068;-58
2021/12/25 02:28:14;;;;;;;;;;;;;;;;;;4188495;28;1017;-57
2021/12/25 02:30:35;;;;;;;;;;;;;;;;;;4219245;28;1748;-57
2021/12/25 02:32:57;;;;;;;;;;;;;;;;;;4188501;28;1137;-57
2021/12/25 02:35:17;;;;;;;;;;;;;;;;;;4188039;28;1047;-57
2021/12/25 02:37:39;;;;;;;;;;;;;;;;;;4188467;28;1222;-57
2021/12/25 02:40:00;;;;;;;;;;;;;;;;;;4188533;28;1952;-57
2021/12/25 02:42:21;;;;;;;;;;;;;;;;;;4216871;28;1281;-57
2021/12/25 02:44:42;;;;;;;;;;;;;;;;;;4203856;28;1118;-57
2021/12/25 02:47:09;;;;;;;;;;;;;;;;;;4188463;28;1049;-57
2021/12/25 02:49:30;;;;;;;;;;;;;;;;;;4203199;28;1064;-58
2021/12/25 02:51:52;;;;;;;;;;;;;;;;;;4216652;28;1036;-57
2021/12/25 02:54:13;;;;;;;;;;;;;;;;;;4186658;28;1264;-57
2021/12/25 02:56:33;;;;;;;;;;;;;;;;;;4190964;28;1628;-57
2021/12/25 02:58:53;;;;;;;;;;;;;;;;;;4204754;28;970;-57
2021/12/25 03:01:14;;;;;;;;;;;;;;;;;;4204553;28;1909;-57
2021/12/25 03:03:34;;;;;;;;;;;;;;;;;;4204840;28;1278;-57
2021/12/25 03:05:55;;;;;;;;;;;;;;;;;;4219625;28;1017;-57
2021/12/25 03:08:15;;;;;;;;;;;;;;;;;;4219945;28;1004;-57
2021/12/25 03:10:47;;;;;;;;;;;;;;;;;;4204692;28;941;-57
2021/12/25 03:13:29;;;;;;;;;;;;;;;;;;4219358;28;1095;-58
2021/12/25 03:15:51;;;;;;;;;;;;;;;;;;4207855;28;1337;-58
2021/12/25 03:18:11;;;;;;;;;;;;;;;;;;4218747;28;953;-57
2021/12/25 03:20:33;;;;;;;;;;;;;;;;;;4219472;28;1910;-57
2021/12/25 03:22:53;;;;;;;;;;;;;;;;;;4218667;28;1075;-57
2021/12/25 03:25:14;;;;;;;;;;;;;;;;;;4222797;28;1042;-57
2021/12/25 03:27:34;;;;;;;;;;;;;;;;;;4222619;28;1056;-57
2021/12/25 03:29:56;;;;;;;;;;;;;;;;;;4221330;28;1042;-57
2021/12/25 03:32:17;;;;;;;;;;;;;;;;;;4221488;28;1040;-57
2021/12/25 03:34:38;;;;;;;;;;;;;;;;;;4221559;28;1112;-57
2021/12/25 03:36:58;;;;;;;;;;;;;;;;;;4222699;28;1024;-57
2021/12/25 03:39:19;;;;;;;;;;;;;;;;;;4214877;28;1216;-57
2021/12/25 03:41:39;;;;;;;;;;;;;;;;;;4237850;28;2029;-57
2021/12/25 03:44:00;;;;;;;;;;;;;;;;;;4205977;28;1169;-57
2021/12/25 03:46:20;;;;;;;;;;;;;;;;;;4205834;28;1018;-57
2021/12/25 03:49:03;;;;;;;;;;;;;;;;;;4205531;28;957;-57
2021/12/25 03:59:18;;;;;;;;;;;;;;;;;;4222063;28;1293;-57
2021/12/25 04:01:46;;;;;;;;;;;;;;;;;;4220977;28;1999;-57
2021/12/25 04:04:11;;;;;;;;;;;;;;;;;;4204809;28;1115;-57
2021/12/25 04:06:35;;;;;;;;;;;;;;;;;;4204239;28;1287;-57
2021/12/25 04:08:57;;;;;;;;;;;;;;;;;;4204219;28;1278;-57
2021/12/25 04:11:27;;;;;;;;;;;;;;;;;;4204506;28;989;-57
2021/12/25 04:13:47;;;;;;;;;;;;;;;;;;4204038;28;943;-57
2021/12/25 04:16:08;;;;;;;;;;;;;;;;;;4204150;28;1366;-58
2021/12/25 04:18:29;;;;;;;;;;;;;;;;;;4204366;28;1002;-57
2021/12/25 04:20:50;;;;;;;;;;;;;;;;;;4232735;28;1910;-57
2021/12/25 04:23:17;;;;;;;;;;;;;;;;;;4214537;28;1085;-57
2021/12/25 04:25:38;;;;;;;;;;;;;;;;;;4221470;28;1032;-57
2021/12/25 04:28:03;;;;;;;;;;;;;;;;;;4223364;28;1015;-57
2021/12/25 04:30:32;;;;;;;;;;;;;;;;;;4222072;28;1165;-57
2021/12/25 05:02:18;;;;;;;;;;;;;;;;;;4221484;28;1898;-57
2021/12/25 05:04:52;;;;;;;;;;;;;;;;;;4222607;28;1139;-57
2021/12/25 05:07:16;;;;;;;;;;;;;;;;;;4221457;28;932;-57
2021/12/25 05:09:37;;;;;;;;;;;;;;;;;;4221202;28;1114;-57
2021/12/25 05:11:57;;;;;;;;;;;;;;;;;;4221240;28;1143;-57
2021/12/25 05:14:18;;;;;;;;;;;;;;;;;;4221453;28;1041;-57
2021/12/25 05:16:40;;;;;;;;;;;;;;;;;;4220940;28;1332;-57
2021/12/25 05:19:01;;;;;;;;;;;;;;;;;;4207700;28;1037;-57
2021/12/25 05:21:21;;;;;;;;;;;;;;;;;;4232853;28;1976;-56
2021/12/25 05:23:42;;;;;;;;;;;;;;;;;;4233023;28;1146;-57
2021/12/25 05:26:03;;;;;;;;;;;;;;;;;;4232945;28;1125;-57
2021/12/25 05:28:35;;;;;;;;;;;;;;;;;;4232966;28;1020;-57
2021/12/25 05:30:55;;;;;;;;;;;;;;;;;;4233051;28;1054;-57
2021/12/25 05:33:38;;;;;;;;;;;;;;;;;;4232976;28;1031;-57
2021/12/25 05:36:21;;;;;;;;;;;;;;;;;;4205217;28;1332;-57
2021/12/25 05:38:49;;;;;;;;;;;;;;;;;;4232990;28;1154;-57
2021/12/25 05:41:20;;;;;;;;;;;;;;;;;;4232979;28;1999;-57
2021/12/25 05:43:40;;;;;;;;;;;;;;;;;;4233006;28;1165;-57
2021/12/25 05:46:01;;;;;;;;;;;;;;;;;;4232293;28;977;-57
2021/12/25 05:48:27;;;;;;;;;;;;;;;;;;4232786;28;1147;-57
2021/12/25 05:51:26;;;;;;;;;;;;;;;;;;4170021;28;1474;-57
2021/12/25 05:53:57;;;;;;;;;;;;;;;;;;4155947;28;987;-57
2021/12/25 05:56:17;;;;;;;;;;;;;;;;;;4187034;28;1157;-57
2021/12/25 05:58:56;;;;;;;;;;;;;;;;;;4205356;28;1069;-57
2021/12/25 06:01:40;;;;;;;;;;;;;;;;;;4204872;28;1921;-57
2021/12/25 06:04:01;;;;;;;;;;;;;;;;;;4232861;28;993;-57
2021/12/25 06:06:22;;;;;;;;;;;;;;;;;;4232619;28;1132;-57
2021/12/25 06:08:43;;;;;;;;;;;;;;;;;;4232573;28;1025;-57
2021/12/25 06:11:04;;;;;;;;;;;;;;;;;;4232558;28;1001;-57
2021/12/25 06:13:24;;;;;;;;;;;;;;;;;;4232376;28;1015;-57
2021/12/25 06:15:47;;;;;;;;;;;;;;;;;;4232423;28;1322;-57
2021/12/25 06:18:11;;;;;;;;;;;;;;;;;;4232541;28;1025;-57
2021/12/25 06:20:37;;;;;;;;;;;;;;;;;;4232354;28;969;-57
2021/12/25 06:23:17;;;;;;;;;;;;;;;;;;4205049;28;1114;-57
2021/12/25 06:25:48;;;;;;;;;;;;;;;;;;4232566;28;985;-57
2021/12/25 06:28:29;;;;;;;;;;;;;;;;;;4202722;28;1107;-57
2021/12/25 06:31:09;;;;;;;;;;;;;;;;;;4202864;28;1191;-57
2021/12/25 06:33:39;;;;;;;;;;;;;;;;;;4232326;28;1020;-57
2021/12/25 06:36:18;;;;;;;;;;;;;;;;;;4205364;28;1008;-57
2021/12/25 06:38:56;;;;;;;;;;;;;;;;;;4232323;28;976;-57
2021/12/25 06:41:28;;;;;;;;;;;;;;;;;;4232180;28;1984;-57
2021/12/25 06:43:49;;;;;;;;;;;;;;;;;;4232373;28;930;-57
2021/12/25 06:46:20;;;;;;;;;;;;;;;;;;4232164;28;1100;-57
2021/12/25 06:48:41;;;;;;;;;;;;;;;;;;4232059;28;1127;-57
2021/12/25 06:51:05;;;;;;;;;;;;;;;;;;4204862;28;1109;-57
2021/12/25 06:53:40;;;;;;;;;;;;;;;;;;4232261;28;1021;-57
2021/12/25 06:56:18;;;;;;;;;;;;;;;;;;4232277;28;1009;-57
2021/12/25 06:58:59;;;;;;;;;;;;;;;;;;4233658;28;987;-57
2021/12/25 07:01:20;;;;;;;;;;;;;;;;;;4235071;28;1980;-57
2021/12/25 07:03:40;;;;;;;;;;;;;;;;;;4234982;28;1065;-57
2021/12/25 07:06:21;;;;;;;;;;;;;;;;;;4207651;28;988;-57
2021/12/25 07:08:57;;;;;;;;;;;;;;;;;;4235057;28;989;-57
2021/12/25 07:11:36;;;;;;;;;;;;;;;;;;4207655;28;869;-57
2021/12/25 07:14:16;;;;;;;;;;;;;;;;;;4235166;28;1055;-57
2021/12/25 07:16:42;;;;;;;;;;;;;;;;;;4207437;28;1172;-57
2021/12/25 07:19:22;;;;;;;;;;;;;;;;;;4207317;28;1016;-57
2021/12/25 07:21:59;;;;;;;;;;;;;;;;;;4192122;28;1980;-57
2021/12/25 07:24:58;;;;;;;;;;;;;;;;;;4155718;28;978;-57
2021/12/25 07:27:28;;;;;;;;;;;;;;;;;;4155754;28;1394;-57
2021/12/25 07:29:49;;;;;;;;;;;;;;;;;;4181052;28;1106;-57
2021/12/25 07:32:09;;;;;;;;;;;;;;;;;;4207968;28;1443;-57
2021/12/25 07:34:29;;;;;;;;;;;;;;;;;;4207256;28;1270;-57
2021/12/25 07:36:49;;;;;;;;;;;;;;;;;;4207529;28;947;-57
2021/12/25 07:39:09;;;;;;;;;;;;;;;;;;4206942;28;1016;-56
2021/12/25 07:41:30;;;;;;;;;;;;;;;;;;4221584;28;1909;-57
2021/12/25 07:43:50;;;;;;;;;;;;;;;;;;4221419;28;1577;-56
2021/12/25 07:46:26;;;;;;;;;;;;;;;;;;4223697;28;1311;-57
2021/12/25 07:48:47;;;;;;;;;;;;;;;;;;4223271;28;1913;-56
2021/12/25 07:51:07;;;;;;;;;;;;;;;;;;4223855;28;1075;-57
2021/12/25 07:53:27;;;;;;;;;;;;;;;;;;4223627;28;1100;-57
2021/12/25 07:55:48;;;;;;;;;;;;;;;;;;4223613;28;1113;-57
2021/12/25 07:58:08;;;;;;;;;;;;;;;;;;4223423;28;959;-57
2021/12/25 08:00:28;;;;;;;;;;;;;;;;;;4223543;28;1176;-57
2021/12/25 08:02:49;;;;;;;;;;;;;;;;;;4223324;28;1983;-57
2021/12/25 08:05:09;;;;;;;;;;;;;;;;;;4223457;28;1181;-57
2021/12/25 08:07:30;;;;;;;;;;;;;;;;;;4223068;28;986;-58
2021/12/25 08:09:51;;;;;;;;;;;;;;;;;;4223381;28;1005;-57
2021/12/25 08:12:12;;;;;;;;;;;;;;;;;;4223102;28;974;-58
2021/12/25 08:14:32;;;;;;;;;;;;;;;;;;4223256;28;969;-58
2021/12/25 08:16:52;;;;;;;;;;;;;;;;;;4222702;28;1366;-57
2021/12/25 08:19:13;;;;;;;;;;;;;;;;;;4221979;28;1443;-58
2021/12/25 08:21:53;;;;;;;;;;;;;;;;;;4220284;28;1980;-58
2021/12/25 08:24:33;;;;;;;;;;;;;;;;;;4223638;28;1020;-58
2021/12/25 08:27:12;;;;;;;;;;;;;;;;;;4223335;28;1004;-58
2021/12/25 08:29:55;;;;;;;;;;;;;;;;;;4223325;28;912;-58
2021/12/25 08:32:50;;;;;;;;;;;;;;;;;;4196984;28;1223;-57
2021/12/25 08:35:40;;;;;;;;;;;;;;;;;;4217573;28;1036;-58
2021/12/25 08:38:00;;;;;;;;;;;;;;;;;;4223004;28;975;-58
2021/12/25 08:40:22;;;;;;;;;;;;;;;;;;4223201;28;934;-58
2021/12/25 08:42:46;;;;;;;;;;;;;;;;;;4223005;28;1906;-58
2021/12/25 08:45:10;;;;;;;;;;;;;;;;;;4223194;28;1058;-59
2021/12/25 08:47:31;;;;;;;;;;;;;;;;;;4223308;28;1056;-59
2021/12/25 08:49:51;;;;;;;;;;;;;;;;;;4223374;28;1060;-58
2021/12/25 08:52:12;;;;;;;;;;;;;;;;;;4223045;28;896;-56
2021/12/25 08:54:32;;;;;;;;;;;;;;;;;;4223166;28;1044;-58
2021/12/25 08:56:52;;;;;;;;;;;;;;;;;;4224018;28;989;-58
2021/12/25 08:59:13;;;;;;;;;;;;;;;;;;4223386;28;1258;-57
2021/12/25 09:01:33;;;;;;;;;;;;;;;;;;4223526;28;1010;-58
2021/12/25 09:03:55;;;;;;;;;;;;;;;;;;4223692;28;1181;-58
2021/12/25 09:06:15;;;;;;;;;;;;;;;;;;4223219;28;1059;-58
2021/12/25 09:08:35;;;;;;;;;;;;;;;;;;4222252;28;1033;-58
2021/12/25 09:10:55;;;;;;;;;;;;;;;;;;4223756;28;1372;-58
2021/12/25 09:13:16;;;;;;;;;;;;;;;;;;4223456;28;1004;-59
2021/12/25 09:15:36;;;;;;;;;;;;;;;;;;4223444;28;1146;-58
2021/12/25 09:17:56;;;;;;;;;;;;;;;;;;4223093;28;1266;-58
2021/12/25 09:20:17;;;;;;;;;;;;;;;;;;4222747;28;1192;-58
2021/12/25 09:22:37;;;;;;;;;;;;;;;;;;4222188;28;1980;-57
2021/12/25 09:24:58;;;;;;;;;;;;;;;;;;4207171;28;1310;-57
2021/12/25 09:27:18;;;;;;;;;;;;;;;;;;4222006;28;1477;-58
2021/12/25 09:29:38;;;;;;;;;;;;;;;;;;4219660;28;1101;-58
2021/12/25 09:31:58;;;;;;;;;;;;;;;;;;4222197;28;1148;-58
2021/12/25 09:34:18;;;;;;;;;;;;;;;;;;4218003;28;1277;-58
2021/12/25 09:36:39;;;;;;;;;;;;;;;;;;4217304;28;1092;-57
2021/12/25 09:38:59;;;;;;;;;;;;;;;;;;4222007;28;1008;-56
2021/12/25 09:41:19;;;;;;;;;;;;;;;;;;4222101;28;981;-58
2021/12/25 09:43:40;;;;;;;;;;;;;;;;;;4221997;28;1980;-58
2021/12/25 09:46:00;;;;;;;;;;;;;;;;;;4217157;28;2259;-58
2021/12/25 09:48:20;;;;;;;;;;;;;;;;;;4205158;28;1106;-58
2021/12/25 09:50:41;;;;;;;;;;;;;;;;;;4213833;28;1101;-58
2021/12/25 09:53:01;;;;;;;;;;;;;;;;;;4214946;28;1919;-58
2021/12/25 09:55:22;;;;;;;;;;;;;;;;;;4205302;28;982;-57
2021/12/25 09:57:46;;;;;;;;;;;;;;;;;;4205140;28;945;-58
2021/12/25 10:00:07;;;;;;;;;;;;;;;;;;4204904;28;1775;-58
2021/12/25 10:02:32;;;;;;;;;;;;;;;;;;4208997;28;2873;-58
2021/12/25 10:04:53;;;;;;;;;;;;;;;;;;4205312;28;1059;-58
2021/12/25 10:07:13;;;;;;;;;;;;;;;;;;4207265;28;2010;-58
2021/12/25 10:09:33;;;;;;;;;;;;;;;;;;4209161;28;1825;-60
2021/12/25 10:11:54;;;;;;;;;;;;;;;;;;4220669;28;2531;-59
2021/12/25 10:14:14;;;;;;;;;;;;;;;;;;4216008;28;1008;-60
2021/12/25 10:16:34;;;;;;;;;;;;;;;;;;4220423;28;1888;-58
2021/12/25 10:18:54;;;;;;;;;;;;;;;;;;4221373;28;1190;-57
2021/12/25 10:21:15;;;;;;;;;;;;;;;;;;4221098;28;1114;-58
2021/12/25 10:23:36;;;;;;;;;;;;;;;;;;4221231;28;1910;-58
2021/12/25 10:25:56;;;;;;;;;;;;;;;;;;4204121;28;1039;-58
2021/12/25 10:28:17;;;;;;;;;;;;;;;;;;4203920;28;966;-58
2021/12/25 10:30:37;;;;;;;;;;;;;;;;;;4204529;28;1001;-58
2021/12/25 10:32:57;;;;;;;;;;;;;;;;;;4205865;28;958;-58
2021/12/25 10:35:17;;;;;;;;;;;;;;;;;;4207543;28;1428;-58
2021/12/25 10:37:37;;;;;;;;;;;;;;;;;;4207552;28;1031;-58
2021/12/25 10:39:57;;;;;;;;;;;;;;;;;;4207522;28;1010;-58
2021/12/25 10:42:19;;;;;;;;;;;;;;;;;;4207601;28;1004;-58
2021/12/25 10:44:39;;;;;;;;;;;;;;;;;;4207507;28;951;-58
2021/12/25 10:46:59;;;;;;;;;;;;;;;;;;4207516;28;1019;-58
2021/12/25 10:49:19;;;;;;;;;;;;;;;;;;4207447;28;1036;-58
2021/12/25 10:51:39;;;;;;;;;;;;;;;;;;4207602;28;942;-58
2021/12/25 10:54:01;;;;;;;;;;;;;;;;;;4207443;28;1026;-58
2021/12/25 10:56:22;;;;;;;;;;;;;;;;;;4222403;28;959;-58
2021/12/25 10:58:42;;;;;;;;;;;;;;;;;;4223900;28;1155;-58
2021/12/25 11:01:02;;;;;;;;;;;;;;;;;;4223860;28;1202;-57
2021/12/25 11:03:23;;;;;;;;;;;;;;;;;;4219210;28;1986;-58
2021/12/25 11:05:43;;;;;;;;;;;;;;;;;;4217625;28;1225;-58
2021/12/25 11:08:03;;;;;;;;;;;;;;;;;;4223745;28;1116;-58
2021/12/25 11:10:24;;;;;;;;;;;;;;;;;;4223748;28;1315;-58
2021/12/25 11:12:44;;;;;;;;;;;;;;;;;;4223752;28;938;-58
2021/12/25 11:15:04;;;;;;;;;;;;;;;;;;4223669;28;1166;-58
2021/12/25 11:17:25;;;;;;;;;;;;;;;;;;4223813;28;1104;-58
2021/12/25 11:19:45;;;;;;;;;;;;;;;;;;4207086;28;995;-58
2021/12/25 11:22:05;;;;;;;;;;;;;;;;;;4206793;28;1174;-58
2021/12/25 11:24:26;;;;;;;;;;;;;;;;;;4206610;28;1907;-58
2021/12/25 11:26:47;;;;;;;;;;;;;;;;;;4206727;28;1406;-58
2021/12/25 11:29:07;;;;;;;;;;;;;;;;;;4206657;28;1368;-58
2021/12/25 11:31:30;;;;;;;;;;;;;;;;;;4206733;28;1112;-58
2021/12/25 11:33:50;;;;;;;;;;;;;;;;;;4208651;28;1040;-58
2021/12/25 11:36:11;;;;;;;;;;;;;;;;;;4223515;28;1073;-58
2021/12/25 11:38:31;;;;;;;;;;;;;;;;;;4221043;28;1779;-58
2021/12/25 11:40:53;;;;;;;;;;;;;;;;;;4221937;28;2005;-57
2021/12/25 11:43:14;;;;;;;;;;;;;;;;;;4210217;28;2638;-57
2021/12/25 11:45:36;;;;;;;;;;;;;;;;;;4211344;28;2301;-58
2021/12/25 11:47:56;;;;;;;;;;;;;;;;;;4207050;28;2530;-58
2021/12/25 11:50:17;;;;;;;;;;;;;;;;;;4208973;28;2051;-58
2021/12/25 11:52:43;;;;;;;;;;;;;;;;;;4219265;28;2251;-57
2021/12/25 11:55:16;;;;;;;;;;;;;;;;;;4210402;28;1062;-57
2021/12/25 11:57:46;;;;;;;;;;;;;;;;;;4212514;28;2028;-58
2021/12/25 12:00:06;;;;;;;;;;;;;;;;;;4210796;28;2383;-58
2021/12/25 12:02:33;;;;;;;;;;;;;;;;;;4215872;28;2671;-58
2021/12/25 12:04:53;;;;;;;;;;;;;;;;;;4214784;28;1980;-57
2021/12/25 12:07:18;;;;;;;;;;;;;;;;;;4211264;28;2852;-58
2021/12/25 12:10:07;;;;;;;;;;;;;;;;;;4203749;28;2808;-58
2021/12/25 12:12:47;;;;;;;;;;;;;;;;;;4208832;28;2371;-58
2021/12/25 12:15:10;;;;;;;;;;;;;;;;;;4212603;28;2545;-57
2021/12/25 12:18:06;;;;;;;;;;;;;;;;;;4154099;28;2250;-58
2021/12/25 12:20:27;;;;;;;;;;;;;;;;;;4203196;28;2456;-58
2021/12/25 12:23:03;;;;;;;;;;;;;;;;;;4210523;28;2264;-57
2021/12/25 12:25:29;;;;;;;;;;;;;;;;;;4214154;28;2563;-57
2021/12/25 12:27:49;;;;;;;;;;;;;;;;;;4217806;28;2096;-57
2021/12/25 12:30:09;;;;;;;;;;;;;;;;;;4221407;28;1148;-58
2021/12/25 12:32:29;;;;;;;;;;;;;;;;;;4204196;28;2259;-57
2021/12/25 12:34:51;;;;;;;;;;;;;;;;;;4204316;28;1021;-57
2021/12/25 12:37:11;;;;;;;;;;;;;;;;;;4216195;28;1452;-57
2021/12/25 12:39:31;;;;;;;;;;;;;;;;;;4220690;28;1168;-58
2021/12/25 12:41:52;;;;;;;;;;;;;;;;;;4220566;28;1401;-58
2021/12/25 12:44:12;;;;;;;;;;;;;;;;;;4221083;28;1938;-57
2021/12/25 12:46:32;;;;;;;;;;;;;;;;;;4215487;28;1774;-57
2021/12/25 12:48:53;;;;;;;;;;;;;;;;;;4204225;28;1264;-57
2021/12/25 12:51:13;;;;;;;;;;;;;;;;;;4204240;28;1094;-57
2021/12/25 12:53:33;;;;;;;;;;;;;;;;;;4219375;28;2392;-57
2021/12/25 12:55:53;;;;;;;;;;;;;;;;;;4212187;28;1931;-58
2021/12/25 12:58:13;;;;;;;;;;;;;;;;;;4208739;28;1437;-57
2021/12/25 13:00:34;;;;;;;;;;;;;;;;;;4206420;28;987;-57
2021/12/25 13:02:54;;;;;;;;;;;;;;;;;;4204306;28;1067;-57
2021/12/25 13:05:15;;;;;;;;;;;;;;;;;;4203986;28;1902;-58
2021/12/25 13:07:37;;;;;;;;;;;;;;;;;;4204129;28;1010;-57
2021/12/25 13:09:58;;;;;;;;;;;;;;;;;;4203896;28;953;-58
2021/12/25 13:12:31;;;;;;;;;;;;;;;;;;4212046;28;1084;-57
2021/12/25 13:14:52;;;;;;;;;;;;;;;;;;4217951;28;1177;-57
2021/12/25 13:17:14;;;;;;;;;;;;;;;;;;4203742;28;946;-57
2021/12/25 13:19:34;;;;;;;;;;;;;;;;;;4203628;28;1154;-57
2021/12/25 13:21:54;;;;;;;;;;;;;;;;;;4203675;28;1007;-58
2021/12/25 13:24:16;;;;;;;;;;;;;;;;;;4193075;28;2241;-57
2021/12/25 13:26:38;;;;;;;;;;;;;;;;;;4190598;28;2239;-57
2021/12/25 13:28:58;;;;;;;;;;;;;;;;;;4192369;28;2155;-58
2021/12/25 13:31:19;;;;;;;;;;;;;;;;;;4191550;28;2142;-57
2021/12/25 13:33:39;;;;;;;;;;;;;;;;;;4193813;28;2363;-57
2021/12/25 13:35:59;;;;;;;;;;;;;;;;;;4201058;28;1925;-57
2021/12/25 13:38:19;;;;;;;;;;;;;;;;;;4191835;28;1715;-57
2021/12/25 13:40:40;;;;;;;;;;;;;;;;;;4186350;28;2403;-58
2021/12/25 13:43:00;;;;;;;;;;;;;;;;;;4196742;28;1691;-58
2021/12/25 13:45:20;;;;;;;;;;;;;;;;;;4197448;28;1901;-58
2021/12/25 13:47:41;;;;;;;;;;;;;;;;;;4192424;28;2647;-57
2021/12/25 13:50:03;;;;;;;;;;;;;;;;;;4199939;28;2276;-57
2021/12/25 13:52:23;;;;;;;;;;;;;;;;;;4191933;28;2374;-57
2021/12/25 13:54:44;;;;;;;;;;;;;;;;;;4177545;28;2231;-57
2021/12/25 13:57:04;;;;;;;;;;;;;;;;;;4193696;28;2517;-57
2021/12/25 13:59:24;;;;;;;;;;;;;;;;;;4188420;28;1809;-58
2021/12/25 14:01:44;;;;;;;;;;;;;;;;;;4184955;28;2493;-58
2021/12/25 14:04:05;;;;;;;;;;;;;;;;;;4187511;28;2390;-57
2021/12/25 14:06:28;;;;;;;;;;;;;;;;;;4186509;28;2195;-58
2021/12/25 14:08:48;;;;;;;;;;;;;;;;;;4202813;28;1007;-58
2021/12/25 14:11:09;;;;;;;;;;;;;;;;;;4190082;28;2194;-58
2021/12/25 14:13:29;;;;;;;;;;;;;;;;;;4192952;28;1919;-57
2021/12/25 14:15:51;;;;;;;;;;;;;;;;;;4194382;28;2708;-58
2021/12/25 14:18:12;;;;;;;;;;;;;;;;;;4202120;28;2282;-58
2021/12/25 14:20:32;;;;;;;;;;;;;;;;;;4212157;28;970;-57
2021/12/25 14:22:52;;;;;;;;;;;;;;;;;;4203147;28;2288;-58
2021/12/25 14:25:13;;;;;;;;;;;;;;;;;;4211557;28;1934;-57
2021/12/25 14:27:33;;;;;;;;;;;;;;;;;;4215831;28;1415;-57
2021/12/25 14:29:53;;;;;;;;;;;;;;;;;;4219231;28;1659;-57
2021/12/25 14:32:13;;;;;;;;;;;;;;;;;;4219316;28;1125;-57
2021/12/25 14:34:33;;;;;;;;;;;;;;;;;;4219621;28;895;-57
2021/12/25 14:36:54;;;;;;;;;;;;;;;;;;4202768;28;1122;-57
2021/12/25 14:39:14;;;;;;;;;;;;;;;;;;4202944;28;1044;-57
2021/12/25 14:41:34;;;;;;;;;;;;;;;;;;4206315;28;1129;-57
2021/12/25 14:43:54;;;;;;;;;;;;;;;;;;4205875;28;1615;-57
2021/12/25 14:46:14;;;;;;;;;;;;;;;;;;4202848;28;1374;-57
2021/12/25 14:48:35;;;;;;;;;;;;;;;;;;4209351;28;1204;-57
2021/12/25 14:50:55;;;;;;;;;;;;;;;;;;4219270;28;990;-58
2021/12/25 14:53:16;;;;;;;;;;;;;;;;;;4213097;28;1741;-58
2021/12/25 14:55:36;;;;;;;;;;;;;;;;;;4209139;28;1747;-58
2021/12/25 14:57:56;;;;;;;;;;;;;;;;;;4215692;28;1285;-57
2021/12/25 15:00:17;;;;;;;;;;;;;;;;;;4213678;28;1970;-56
2021/12/25 15:02:38;;;;;;;;;;;;;;;;;;4214444;28;1752;-55
2021/12/25 15:04:59;;;;;;;;;;;;;;;;;;4218429;28;1882;-55
2021/12/25 15:07:20;;;;;;;;;;;;;;;;;;4214156;28;2339;-56
2021/12/25 15:09:40;;;;;;;;;;;;;;;;;;4223861;28;1748;-55
2021/12/25 15:12:00;;;;;;;;;;;;;;;;;;4216103;28;2021;-55
2021/12/25 15:14:21;;;;;;;;;;;;;;;;;;4213555;28;1982;-55
2021/12/25 15:16:41;;;;;;;;;;;;;;;;;;4222158;28;1984;-55
2021/12/25 15:19:01;;;;;;;;;;;;;;;;;;4216816;28;1737;-55
2021/12/25 15:21:22;;;;;;;;;;;;;;;;;;4219860;28;1560;-56
2021/12/25 15:23:42;;;;;;;;;;;;;;;;;;4214307;28;1808;-55
2021/12/25 15:26:02;;;;;;;;;;;;;;;;;;4213798;28;1984;-55
2021/12/25 15:28:23;;;;;;;;;;;;;;;;;;4212052;28;1364;-56
2021/12/25 15:30:43;;;;;;;;;;;;;;;;;;4215441;28;1082;-55
2021/12/25 15:33:03;;;;;;;;;;;;;;;;;;4214046;28;1939;-56
2021/12/25 15:35:24;;;;;;;;;;;;;;;;;;4205770;28;1701;-55
2021/12/25 15:37:44;;;;;;;;;;;;;;;;;;4220902;28;999;-55
2021/12/25 15:40:04;;;;;;;;;;;;;;;;;;4221587;28;1044;-55
2021/12/25 15:42:25;;;;;;;;;;;;;;;;;;4221586;28;1207;-56
2021/12/25 15:44:46;;;;;;;;;;;;;;;;;;4212552;28;1906;-55
2021/12/25 15:47:06;;;;;;;;;;;;;;;;;;4219256;28;1431;-55
2021/12/25 15:49:26;;;;;;;;;;;;;;;;;;4204537;28;2568;-55
2021/12/25 15:51:47;;;;;;;;;;;;;;;;;;4215463;28;1132;-55
2021/12/25 15:54:07;;;;;;;;;;;;;;;;;;4215451;28;1834;-55
2021/12/25 15:56:29;;;;;;;;;;;;;;;;;;4218849;28;1721;-55
2021/12/25 15:58:50;;;;;;;;;;;;;;;;;;4213830;28;1007;-56
2021/12/25 16:01:10;;;;;;;;;;;;;;;;;;4191553;28;1998;-55
2021/12/25 16:03:32;;;;;;;;;;;;;;;;;;4208946;28;2036;-55
2021/12/25 16:05:53;;;;;;;;;;;;;;;;;;4225934;27;2008;-55
2021/12/25 16:08:14;;;;;;;;;;;;;;;;;;4204876;28;1066;-55
2021/12/25 16:10:34;;;;;;;;;;;;;;;;;;4202548;28;2775;-55
2021/12/25 16:12:55;;;;;;;;;;;;;;;;;;4211312;28;1802;-55
2021/12/25 16:15:15;;;;;;;;;;;;;;;;;;4212669;28;1993;-56
2021/12/25 16:17:35;;;;;;;;;;;;;;;;;;4218374;28;1487;-55
2021/12/25 16:19:56;;;;;;;;;;;;;;;;;;4214948;28;2577;-56
2021/12/25 16:22:16;;;;;;;;;;;;;;;;;;4208205;28;2544;-55
2021/12/25 16:24:37;;;;;;;;;;;;;;;;;;4217773;28;1989;-55
2021/12/25 16:26:57;;;;;;;;;;;;;;;;;;4219824;28;2086;-55
2021/12/25 16:29:17;;;;;;;;;;;;;;;;;;4220416;28;1711;-55
2021/12/25 16:31:38;;;;;;;;;;;;;;;;;;4193051;28;2074;-55
2021/12/25 16:33:59;;;;;;;;;;;;;;;;;;4221116;28;1217;-55
2021/12/25 16:36:19;;;;;;;;;;;;;;;;;;4220856;28;1175;-55
2021/12/25 16:38:40;;;;;;;;;;;;;;;;;;4220778;28;1292;-55
2021/12/25 16:41:00;;;;;;;;;;;;;;;;;;4220157;28;1751;-55
2021/12/25 16:43:21;;;;;;;;;;;;;;;;;;4211868;28;1727;-55
2021/12/25 16:45:41;;;;;;;;;;;;;;;;;;4213001;28;1980;-55
2021/12/25 16:48:02;;;;;;;;;;;;;;;;;;4220733;28;2636;-55
2021/12/25 16:50:22;;;;;;;;;;;;;;;;;;4221461;28;1364;-55
2021/12/25 16:52:43;;;;;;;;;;;;;;;;;;4214228;28;1417;-55
2021/12/25 16:55:03;;;;;;;;;;;;;;;;;;4219760;28;2083;-55
2021/12/25 16:57:23;;;;;;;;;;;;;;;;;;4217700;28;1629;-55
2021/12/25 16:59:44;;;;;;;;;;;;;;;;;;4220212;28;1787;-55
2021/12/25 17:02:04;;;;;;;;;;;;;;;;;;4221168;28;1025;-55
2021/12/25 17:04:24;;;;;;;;;;;;;;;;;;4220789;28;1661;-55
2021/12/25 17:06:45;;;;;;;;;;;;;;;;;;4220641;28;2004;-55
2021/12/25 17:09:05;;;;;;;;;;;;;;;;;;4220521;28;1298;-55
2021/12/25 17:11:25;;;;;;;;;;;;;;;;;;4220406;28;1214;-56
2021/12/25 17:13:45;;;;;;;;;;;;;;;;;;4203249;28;1259;-55
2021/12/25 17:16:05;;;;;;;;;;;;;;;;;;4217380;28;1988;-55
2021/12/25 17:18:25;;;;;;;;;;;;;;;;;;4219329;28;1041;-55
2021/12/25 17:20:46;;;;;;;;;;;;;;;;;;4220067;28;1361;-56
2021/12/25 17:23:06;;;;;;;;;;;;;;;;;;4220161;28;1149;-56
2021/12/25 17:25:27;;;;;;;;;;;;;;;;;;4220169;28;1986;-55
2021/12/25 17:27:48;;;;;;;;;;;;;;;;;;4219485;28;1290;-56
2021/12/25 17:30:08;;;;;;;;;;;;;;;;;;4220520;28;1167;-57
2021/12/25 17:32:28;;;;;;;;;;;;;;;;;;4220537;28;1014;-56
2021/12/25 17:34:48;;;;;;;;;;;;;;;;;;4220362;28;1332;-56